createdAt,value
2023-03-16T00:01:06.460Z,99.90
2023-03-16T00:03:36.945Z,99.90
2023-03-16T00:06:05.485Z,99.90
2023-03-16T00:08:34.780Z,99.90
2023-03-16T00:11:03.776Z,99.90
2023-03-16T00:13:32.675Z,99.90
2023-03-16T00:16:03.020Z,99.90
2023-03-16T00:18:38.719Z,99.90
2023-03-16T00:21:08.535Z,99.90
2023-03-16T00:23:37.619Z,99.90
2023-03-16T00:26:08.328Z,99.90
2023-03-16T00:28:37.141Z,99.90
2023-03-16T00:31:06.568Z,99.90
2023-03-16T00:33:35.041Z,99.90
2023-03-16T00:36:04.329Z,99.90
2023-03-16T00:38:35.852Z,99.90
2023-03-16T00:41:04.967Z,99.90
2023-03-16T00:43:41.082Z,99.90
2023-03-16T00:46:11.545Z,99.90
2023-03-16T00:48:42.554Z,99.90
2023-03-16T00:51:13.832Z,99.90
2023-03-16T00:53:45.859Z,99.90
2023-03-16T00:56:14.838Z,99.90
2023-03-16T00:58:43.885Z,99.90
2023-03-16T01:01:14.334Z,99.90
2023-03-16T01:03:42.839Z,99.90
2023-03-16T01:06:13.355Z,99.90
2023-03-16T01:08:43.935Z,99.90
2023-03-16T01:11:14.025Z,99.90
2023-03-16T01:13:42.288Z,99.90
2023-03-16T01:16:11.692Z,99.90
2023-03-16T01:18:40.456Z,99.90
2023-03-16T01:21:10.305Z,99.90
2023-03-16T01:23:38.780Z,99.90
2023-03-16T01:26:08.532Z,99.90
2023-03-16T01:28:37.429Z,99.90
2023-03-16T01:31:08.312Z,99.90
2023-03-16T01:33:37.091Z,99.90
2023-03-16T01:36:07.968Z,99.90
2023-03-16T01:38:36.654Z,99.90
2023-03-16T01:41:05.969Z,99.90
2023-03-16T01:43:37.616Z,99.90
2023-03-16T01:46:25.073Z,99.90
2023-03-16T01:49:05.668Z,99.90
2023-03-16T01:51:38.990Z,99.90
2023-03-16T01:54:14.590Z,99.90
2023-03-16T01:56:47.597Z,99.90
2023-03-16T01:59:22.382Z,99.90
2023-03-16T02:01:52.890Z,99.90
2023-03-16T02:04:33.993Z,99.90
2023-03-16T02:07:02.479Z,99.90
2023-03-16T02:09:31.119Z,99.90
2023-03-16T02:12:00.004Z,99.90
2023-03-16T02:14:29.835Z,99.90
2023-03-16T02:16:58.570Z,99.90
2023-03-16T02:19:37.484Z,99.90
2023-03-16T02:22:08.593Z,99.90
2023-03-16T02:24:37.851Z,99.90
2023-03-16T02:27:09.054Z,99.90
2023-03-16T02:30:03.034Z,99.90
2023-03-16T02:32:33.558Z,99.90
2023-03-16T02:35:03.338Z,99.90
2023-03-16T02:37:33.860Z,99.90
2023-03-16T02:40:03.785Z,99.90
2023-03-16T02:42:32.307Z,99.90
2023-03-16T02:45:03.278Z,99.90
2023-03-16T02:47:36.937Z,99.90
2023-03-16T02:50:06.850Z,99.90
2023-03-16T02:52:35.664Z,99.90
2023-03-16T02:55:04.384Z,99.90
2023-03-16T02:57:32.872Z,99.90
2023-03-16T03:00:01.276Z,99.90
2023-03-16T03:02:32.064Z,99.90
2023-03-16T03:05:00.695Z,99.90
2023-03-16T03:07:31.914Z,99.90
2023-03-16T03:10:02.998Z,99.90
2023-03-16T03:12:31.220Z,99.90
2023-03-16T03:14:59.460Z,99.90
2023-03-16T03:17:30.238Z,99.90
2023-03-16T03:20:02.324Z,99.90
2023-03-16T03:22:30.646Z,99.90
2023-03-16T03:24:58.921Z,99.90
2023-03-16T03:27:27.255Z,99.90
2023-03-16T03:29:55.562Z,99.90
2023-03-16T03:32:23.877Z,99.90
2023-03-16T03:34:53.025Z,99.90
2023-03-16T03:37:22.658Z,99.90
2023-03-16T03:39:51.169Z,99.90
2023-03-16T03:42:19.433Z,99.90
2023-03-16T03:44:47.686Z,99.90
2023-03-16T03:47:15.891Z,99.90
2023-03-16T03:49:44.359Z,99.90
2023-03-16T03:52:12.882Z,99.90
2023-03-16T03:54:42.504Z,99.90
2023-03-16T03:57:11.013Z,99.90
2023-03-16T03:59:43.697Z,99.90
2023-03-16T04:02:12.621Z,99.90
2023-03-16T04:04:44.293Z,99.90
2023-03-16T04:07:13.070Z,99.90
2023-03-16T04:09:42.853Z,99.90
2023-03-16T04:12:12.684Z,99.90
2023-03-16T04:14:40.922Z,99.90
2023-03-16T04:17:09.312Z,99.90
2023-03-16T04:19:37.689Z,99.90
2023-03-16T04:22:07.206Z,99.90
2023-03-16T04:24:38.754Z,99.90
2023-03-16T04:27:08.433Z,99.90
2023-03-16T04:29:36.810Z,99.90
2023-03-16T04:32:05.820Z,99.90
2023-03-16T04:34:34.502Z,99.90
2023-03-16T04:37:03.421Z,99.90
2023-03-16T04:39:31.613Z,99.90
2023-03-16T04:41:59.860Z,99.90
2023-03-16T04:44:29.566Z,99.90
2023-03-16T04:46:59.200Z,99.90
2023-03-16T04:49:27.481Z,99.90
2023-03-16T04:51:55.711Z,99.90
2023-03-16T04:54:23.978Z,99.90
2023-03-16T04:56:52.500Z,99.90
2023-03-16T04:59:21.080Z,99.90
2023-03-16T05:01:50.853Z,99.90
2023-03-16T05:04:19.921Z,99.90
2023-03-16T05:06:48.241Z,99.90
2023-03-16T05:09:16.502Z,99.90
2023-03-16T05:11:44.854Z,99.90
2023-03-16T05:14:13.140Z,99.90
2023-03-16T05:16:41.977Z,99.90
2023-03-16T05:19:12.525Z,99.90
2023-03-16T05:21:40.741Z,99.90
2023-03-16T05:24:09.626Z,99.90
2023-03-16T05:26:37.840Z,99.90
2023-03-16T05:29:06.692Z,99.90
2023-03-16T05:31:36.280Z,99.90
2023-03-16T05:34:04.587Z,99.90
2023-03-16T05:36:35.963Z,99.90
2023-03-16T05:39:04.291Z,99.90
2023-03-16T05:41:32.634Z,99.90
2023-03-16T05:44:00.893Z,99.90
2023-03-16T05:46:29.223Z,99.90
2023-03-16T05:48:57.509Z,99.90
2023-03-16T05:51:26.809Z,99.90
2023-03-16T05:53:57.508Z,99.90
2023-03-16T05:56:25.990Z,99.90
2023-03-16T05:58:55.232Z,99.90
2023-03-16T06:01:23.923Z,99.90
2023-03-16T06:03:53.068Z,99.90
2023-03-16T06:06:22.633Z,99.90
2023-03-16T06:08:50.862Z,99.90
2023-03-16T06:11:20.566Z,99.90
2023-03-16T06:13:48.837Z,99.90
2023-03-16T06:16:17.184Z,99.90
2023-03-16T06:18:45.680Z,99.90
2023-03-16T06:21:14.045Z,99.90
2023-03-16T06:23:42.295Z,99.90
2023-03-16T06:26:10.580Z,99.90
2023-03-16T06:28:40.217Z,99.90
2023-03-16T06:31:08.845Z,99.90
2023-03-16T06:33:37.863Z,99.90
2023-03-16T06:36:06.433Z,99.90
2023-03-16T06:38:34.760Z,99.90
2023-03-16T06:41:02.997Z,99.90
2023-03-16T06:43:31.290Z,99.90
2023-03-16T06:46:04.450Z,99.90
2023-03-16T06:48:32.898Z,99.90
2023-03-16T06:51:02.225Z,99.90
2023-03-16T06:53:31.033Z,99.90
2023-03-16T06:55:59.967Z,99.90
2023-03-16T06:58:28.282Z,99.90
2023-03-16T07:00:57.136Z,99.90
2023-03-16T07:03:26.982Z,99.90
2023-03-16T07:05:55.669Z,99.90
2023-03-16T07:08:24.331Z,99.90
2023-03-16T07:10:52.629Z,99.90
2023-03-16T07:13:21.012Z,99.90
2023-03-16T07:15:52.247Z,99.90
2023-03-16T07:18:20.705Z,99.90
2023-03-16T07:20:50.321Z,99.90
2023-03-16T07:23:18.756Z,99.90
2023-03-16T07:25:47.336Z,99.90
2023-03-16T07:28:15.790Z,99.90
2023-03-16T07:30:56.680Z,99.90
2023-03-16T07:33:32.256Z,99.90
2023-03-16T07:36:04.462Z,99.90
2023-03-16T07:38:33.606Z,90.50
2023-03-16T07:41:02.207Z,96.70
2023-03-16T07:43:30.502Z,93.30
2023-03-16T07:45:58.830Z,97.70
2023-03-16T07:48:27.239Z,88.50
2023-03-16T07:50:55.527Z,93.90
2023-03-16T07:53:25.252Z,88.00
2023-03-16T07:55:53.430Z,76.50
2023-03-16T07:58:21.656Z,70.30
2023-03-16T08:00:49.977Z,67.20
2023-03-16T08:03:18.630Z,70.20
2023-03-16T08:05:48.893Z,65.50
2023-03-16T08:08:17.307Z,67.00
2023-03-16T08:10:49.168Z,66.30
2023-03-16T08:13:17.920Z,64.10
2023-03-16T08:15:48.350Z,63.90
2023-03-16T08:18:17.380Z,64.40
2023-03-16T08:20:45.887Z,66.50
2023-03-16T08:23:15.557Z,66.20
2023-03-16T08:25:44.327Z,68.40
2023-03-16T08:28:13.946Z,70.20
2023-03-16T08:30:46.978Z,67.80
2023-03-16T08:33:17.910Z,67.20
2023-03-16T08:35:46.515Z,65.90
2023-03-16T08:38:15.970Z,67.30
2023-03-16T08:40:47.725Z,61.80
2023-03-16T08:43:19.157Z,67.40
2023-03-16T08:45:48.438Z,71.00
2023-03-16T08:48:16.701Z,64.40
2023-03-16T08:50:45.335Z,60.20
2023-03-16T08:53:15.352Z,65.10
2023-03-16T08:55:44.062Z,61.40
2023-03-16T08:58:12.932Z,69.20
2023-03-16T09:00:44.340Z,67.00
2023-03-16T09:03:15.520Z,64.90
2023-03-16T09:05:44.417Z,68.20
2023-03-16T09:08:12.705Z,63.00
2023-03-16T09:10:41.889Z,66.10
2023-03-16T09:13:10.182Z,60.60
2023-03-16T09:15:38.955Z,59.00
2023-03-16T09:18:08.669Z,57.40
2023-03-16T09:20:37.916Z,55.60
2023-03-16T09:23:06.395Z,54.50
2023-03-16T09:25:34.669Z,51.50
2023-03-16T09:28:02.896Z,51.20
2023-03-16T09:30:31.627Z,51.80
2023-03-16T09:33:03.002Z,49.60
2023-03-16T09:35:35.126Z,50.70
2023-03-16T09:38:06.886Z,46.80
2023-03-16T09:40:37.645Z,48.70
2023-03-16T09:43:22.962Z,47.90
2023-03-16T09:46:00.656Z,48.50
2023-03-16T09:48:34.026Z,47.20
2023-03-16T09:51:07.798Z,46.40
2023-03-16T09:53:39.780Z,46.80
2023-03-16T09:56:13.609Z,44.10
2023-03-16T09:58:41.976Z,45.80
2023-03-16T10:01:16.665Z,45.80
2023-03-16T10:04:00.732Z,44.00
2023-03-16T10:06:31.246Z,41.90
2023-03-16T10:09:08.304Z,46.30
2023-03-16T10:11:41.196Z,45.40
2023-03-16T10:14:18.909Z,43.20
2023-03-16T10:16:51.389Z,44.40
2023-03-16T10:19:27.197Z,44.50
2023-03-16T10:21:59.077Z,45.80
2023-03-16T10:24:42.067Z,42.80
2023-03-16T10:27:18.164Z,43.30
2023-03-16T10:29:46.489Z,40.70
2023-03-16T10:32:18.990Z,42.30
2023-03-16T10:34:53.817Z,42.90
2023-03-16T10:37:28.335Z,41.10
2023-03-16T10:39:57.265Z,38.80
2023-03-16T10:42:27.164Z,41.00
2023-03-16T10:45:01.683Z,40.90
2023-03-16T10:47:32.498Z,40.60
2023-03-16T10:50:11.600Z,43.20
2023-03-16T10:52:44.249Z,42.30
2023-03-16T10:55:18.766Z,40.30
2023-03-16T10:57:51.397Z,40.90
2023-03-16T11:00:23.324Z,43.60
2023-03-16T11:02:54.275Z,42.60
2023-03-16T11:05:31.243Z,42.30
2023-03-16T11:08:03.843Z,41.10
2023-03-16T11:10:53.026Z,43.60
2023-03-16T11:13:24.706Z,42.20
2023-03-16T11:15:58.477Z,43.00
2023-03-16T11:18:31.190Z,43.20
2023-03-16T11:23:58.195Z,48.30
2023-03-16T11:26:34.994Z,46.10
2023-03-16T11:29:11.144Z,43.60
2023-03-16T11:31:48.650Z,45.40
2023-03-16T11:34:19.354Z,46.30
2023-03-16T11:36:56.008Z,45.50
2023-03-16T11:39:35.102Z,45.20
2023-03-16T11:42:22.549Z,43.30
2023-03-16T11:44:57.464Z,43.10
2023-03-16T11:47:53.164Z,45.90
2023-03-16T11:50:25.930Z,50.50
2023-03-16T11:53:01.281Z,45.10
2023-03-16T11:55:40.923Z,43.90
2023-03-16T11:58:25.808Z,44.60
2023-03-16T12:01:03.125Z,46.30
2023-03-16T12:04:02.339Z,45.30
2023-03-16T12:06:50.745Z,49.70
2023-03-16T12:09:42.868Z,47.30
2023-03-16T12:12:28.488Z,45.30
2023-03-16T12:15:24.331Z,43.30
2023-03-16T12:17:57.583Z,45.40
2023-03-16T12:20:31.750Z,42.60
2023-03-16T12:23:04.661Z,46.10
2023-03-16T12:25:36.622Z,47.40
2023-03-16T12:28:14.069Z,44.70
2023-03-16T12:30:51.718Z,45.60
2023-03-16T12:33:27.142Z,43.10
2023-03-16T12:36:00.882Z,45.50
2023-03-16T12:38:41.292Z,44.90
2023-03-16T12:41:24.740Z,47.30
2023-03-16T12:44:06.465Z,47.70
2023-03-16T12:46:47.931Z,47.00
2023-03-16T12:49:16.816Z,47.50
2023-03-16T12:51:45.538Z,46.60
2023-03-16T12:54:22.001Z,48.30
2023-03-16T12:56:51.737Z,47.70
2023-03-16T12:59:24.320Z,49.40
2023-03-16T13:01:54.094Z,47.40
2023-03-16T13:04:33.885Z,46.10
2023-03-16T13:07:06.170Z,47.10
2023-03-16T13:09:43.969Z,49.60
2023-03-16T13:12:24.888Z,55.60
2023-03-16T13:14:57.009Z,48.70
2023-03-16T13:17:31.242Z,48.40
2023-03-16T13:20:04.274Z,52.50
2023-03-16T13:22:43.192Z,56.60
2023-03-16T13:25:18.228Z,54.10
2023-03-16T13:27:49.324Z,52.10
2023-03-16T13:30:22.408Z,56.50
2023-03-16T13:32:54.812Z,50.70
2023-03-16T13:35:27.902Z,48.20
2023-03-16T13:37:56.268Z,55.50
2023-03-16T13:40:28.074Z,49.10
2023-03-16T13:42:59.120Z,49.50
2023-03-16T13:45:34.850Z,60.70
2023-03-16T13:48:03.367Z,54.30
2023-03-16T13:50:33.878Z,49.60
2023-03-16T13:53:04.677Z,49.60
2023-03-16T13:55:34.755Z,52.40
2023-03-16T13:58:03.943Z,48.10
2023-03-16T14:00:36.892Z,56.00
2023-03-16T14:03:16.254Z,49.00
2023-03-16T14:05:48.391Z,49.00
2023-03-16T14:08:18.117Z,49.70
2023-03-16T14:10:47.529Z,48.70
2023-03-16T14:13:36.730Z,50.10
2023-03-16T14:16:14.456Z,52.20
2023-03-16T14:18:44.716Z,52.60
2023-03-16T14:21:17.871Z,59.90
2023-03-16T14:23:50.790Z,58.10
2023-03-16T14:26:24.497Z,53.60
2023-03-16T14:28:58.476Z,54.60
2023-03-16T14:31:39.766Z,61.40
2023-03-16T14:34:21.410Z,53.70
2023-03-16T14:36:50.061Z,51.70
2023-03-16T14:39:21.856Z,55.10
2023-03-16T14:41:50.905Z,59.30
2023-03-16T14:44:25.849Z,56.40
2023-03-16T14:46:57.837Z,53.90
2023-03-16T14:49:29.156Z,59.20
2023-03-16T14:52:02.134Z,56.00
2023-03-16T14:54:30.989Z,51.20
2023-03-16T14:57:02.760Z,52.20
2023-03-16T14:59:31.101Z,57.90
2023-03-16T15:02:02.313Z,60.50
2023-03-16T15:04:33.438Z,60.50
2023-03-16T15:07:04.313Z,56.10
2023-03-16T15:09:37.143Z,55.80
2023-03-16T15:12:06.264Z,52.40
2023-03-16T15:14:51.154Z,51.30
2023-03-16T15:17:20.855Z,51.00
2023-03-16T15:19:50.412Z,53.20
2023-03-16T15:22:29.146Z,48.10
2023-03-16T15:24:58.946Z,54.40
2023-03-16T15:27:34.186Z,54.10
2023-03-16T15:30:03.019Z,49.70
2023-03-16T15:32:35.435Z,49.00
2023-03-16T15:35:04.205Z,47.90
2023-03-16T15:37:32.842Z,52.50
2023-03-16T15:40:01.228Z,51.20
2023-03-16T15:42:29.532Z,52.50
2023-03-16T15:44:57.789Z,54.70
2023-03-16T15:47:26.697Z,55.00
2023-03-16T15:49:56.609Z,60.60
2023-03-16T15:52:36.742Z,56.90
2023-03-16T15:55:08.387Z,58.00
2023-03-16T15:57:37.189Z,57.00
2023-03-16T16:00:07.293Z,56.30
2023-03-16T16:02:38.065Z,58.10
2023-03-16T16:05:10.619Z,57.10
2023-03-16T16:07:41.781Z,60.30
2023-03-16T16:10:15.262Z,64.50
2023-03-16T16:12:51.246Z,63.50
2023-03-16T16:15:25.910Z,68.20
2023-03-16T16:18:19.086Z,66.00
2023-03-16T16:20:48.331Z,64.60
2023-03-16T16:23:19.829Z,67.60
2023-03-16T16:25:49.620Z,67.60
2023-03-16T16:28:20.837Z,71.60
2023-03-16T16:30:49.396Z,69.10
2023-03-16T16:33:28.661Z,75.10
2023-03-16T16:36:02.779Z,71.10
2023-03-16T16:38:32.564Z,70.20
2023-03-16T16:41:03.069Z,75.70
2023-03-16T16:43:36.607Z,74.80
2023-03-16T16:46:09.106Z,80.70
2023-03-16T16:48:39.910Z,86.40
2023-03-16T16:51:18.598Z,74.50
2023-03-16T16:53:47.349Z,78.60
2023-03-16T16:56:17.871Z,79.80
2023-03-16T16:58:49.057Z,86.30
2023-03-16T17:01:24.406Z,86.50
2023-03-16T17:03:52.766Z,93.50
2023-03-16T17:06:22.396Z,86.60
2023-03-16T17:08:51.392Z,90.50
2023-03-16T17:11:26.254Z,92.00
2023-03-16T17:13:56.974Z,92.10
2023-03-16T17:16:26.674Z,99.60
2023-03-16T17:18:55.584Z,99.30
2023-03-16T17:21:27.234Z,99.90
2023-03-16T17:23:56.973Z,99.90
2023-03-16T17:26:28.939Z,99.90
2023-03-16T17:28:59.495Z,99.90
2023-03-16T17:31:31.087Z,99.90
2023-03-16T17:33:59.665Z,99.90
2023-03-16T17:36:27.251Z,99.90
2023-03-16T17:38:58.148Z,99.90
2023-03-16T17:41:28.125Z,99.90
2023-03-16T17:43:58.474Z,99.90
2023-03-16T17:46:30.251Z,99.90
2023-03-16T17:49:00.211Z,99.90
2023-03-16T17:51:31.550Z,99.90
2023-03-16T17:54:01.530Z,99.90
2023-03-16T17:56:30.532Z,99.90
2023-03-16T17:58:59.238Z,99.90
2023-03-16T18:01:34.549Z,99.90
2023-03-16T18:04:13.537Z,99.90
2023-03-16T18:06:47.151Z,99.90
2023-03-16T18:09:17.843Z,99.90
2023-03-16T18:11:48.163Z,99.90
2023-03-16T18:14:26.457Z,99.90
2023-03-16T18:17:04.749Z,99.90
2023-03-16T18:19:37.893Z,99.90
2023-03-16T18:22:13.615Z,99.90
2023-03-16T18:24:46.483Z,99.90
2023-03-16T18:27:18.351Z,99.90
2023-03-16T18:29:59.316Z,99.90
2023-03-16T18:32:30.652Z,99.90
2023-03-16T18:35:00.095Z,99.90
2023-03-16T18:37:29.547Z,99.90
2023-03-16T18:39:59.941Z,99.90
2023-03-16T18:42:28.795Z,99.90
2023-03-16T18:44:57.206Z,99.90
2023-03-16T18:47:31.624Z,99.90
2023-03-16T18:50:07.735Z,99.90
2023-03-16T18:52:39.272Z,99.90
2023-03-16T18:55:17.176Z,99.90
2023-03-16T18:57:50.717Z,99.90
2023-03-16T19:00:21.948Z,99.90
2023-03-16T19:02:56.400Z,99.90
2023-03-16T19:05:37.578Z,99.90
2023-03-16T19:08:13.288Z,99.90
2023-03-16T19:10:51.345Z,99.90
2023-03-16T19:13:24.606Z,99.90
2023-03-16T19:16:04.332Z,99.90
2023-03-16T19:18:42.098Z,99.90
2023-03-16T19:21:25.436Z,99.90
2023-03-16T19:23:58.737Z,99.90
2023-03-16T19:26:29.233Z,99.90
2023-03-16T19:29:00.519Z,99.90
2023-03-16T19:31:31.416Z,99.90
2023-03-16T19:34:00.134Z,99.90
2023-03-16T19:36:34.067Z,99.90
2023-03-16T19:39:04.085Z,99.90
2023-03-16T19:41:36.491Z,99.90
2023-03-16T19:44:37.222Z,99.90
2023-03-16T19:47:41.547Z,99.90
2023-03-16T19:50:16.109Z,99.90
2023-03-16T19:52:45.174Z,99.90
2023-03-16T19:55:22.089Z,99.90
2023-03-16T19:57:59.152Z,99.90
2023-03-16T20:00:31.083Z,99.90
2023-03-16T20:02:59.964Z,99.90
2023-03-16T20:05:41.942Z,99.90
2023-03-16T20:08:21.502Z,99.90
2023-03-16T20:10:50.284Z,99.90
2023-03-16T20:13:23.301Z,99.90
2023-03-16T20:15:51.638Z,99.90
2023-03-16T20:18:22.880Z,99.90
2023-03-16T20:20:51.807Z,99.90
2023-03-16T20:23:31.133Z,99.90
2023-03-16T20:26:03.088Z,99.90
2023-03-16T20:28:37.485Z,99.90
2023-03-16T20:31:40.136Z,99.90
2023-03-16T20:34:35.032Z,99.90
2023-03-16T20:37:32.178Z,99.90
2023-03-16T20:40:18.562Z,99.90
2023-03-16T20:42:58.684Z,99.90
2023-03-16T20:45:30.637Z,99.90
2023-03-16T20:47:59.222Z,99.90
2023-03-16T20:50:38.803Z,99.90
2023-03-16T20:53:10.302Z,99.90
2023-03-16T20:55:39.142Z,99.90
2023-03-16T20:58:19.552Z,99.90
2023-03-16T21:00:55.864Z,99.90
2023-03-16T21:03:26.297Z,99.90
2023-03-16T21:05:59.618Z,99.90
2023-03-16T21:08:29.437Z,99.90
2023-03-16T21:10:59.896Z,99.90
2023-03-16T21:13:43.261Z,99.90
2023-03-16T21:16:13.833Z,99.90
2023-03-16T21:18:42.382Z,99.90
2023-03-16T21:21:15.781Z,99.90
2023-03-16T21:23:51.672Z,99.90
2023-03-16T21:26:21.833Z,99.90
2023-03-16T21:28:55.705Z,99.90
2023-03-16T21:31:26.590Z,99.90
2023-03-16T21:33:58.669Z,99.90
2023-03-16T21:36:27.528Z,99.90
2023-03-16T21:38:57.197Z,99.90
2023-03-16T21:41:25.832Z,99.90
2023-03-16T21:43:56.081Z,99.90
2023-03-16T21:46:26.475Z,99.90
2023-03-16T21:48:59.195Z,99.90
2023-03-16T21:51:32.300Z,99.90
2023-03-16T21:54:02.455Z,99.90
2023-03-16T21:56:30.961Z,99.90
2023-03-16T21:58:59.409Z,99.90
2023-03-16T22:01:31.693Z,99.90
2023-03-16T22:04:04.530Z,99.90
2023-03-16T22:06:33.448Z,99.90
2023-03-16T22:09:02.161Z,99.90
2023-03-16T22:11:31.669Z,99.90
2023-03-16T22:14:01.459Z,99.90
2023-03-16T22:16:35.103Z,99.90
2023-03-16T22:19:04.964Z,99.90
2023-03-16T22:21:35.732Z,99.90
2023-03-16T22:24:06.703Z,99.90
2023-03-16T22:26:36.076Z,99.90
2023-03-16T22:29:26.862Z,99.90
2023-03-16T22:32:08.372Z,99.90
2023-03-16T22:34:43.191Z,99.90
2023-03-16T22:37:18.693Z,99.90
2023-03-16T22:39:47.516Z,99.90
2023-03-16T22:42:30.613Z,99.90
2023-03-16T22:45:19.293Z,99.90
2023-03-16T22:47:49.138Z,99.90
2023-03-16T22:50:18.734Z,99.90
2023-03-16T22:52:51.163Z,99.90
2023-03-16T22:55:22.871Z,99.90
2023-03-16T22:57:52.645Z,99.90
2023-03-16T23:00:22.208Z,99.90
2023-03-16T23:02:52.384Z,99.90
2023-03-16T23:05:32.868Z,99.90
2023-03-16T23:08:03.686Z,99.90
2023-03-16T23:10:32.940Z,99.90
2023-03-16T23:13:02.151Z,99.90
2023-03-16T23:15:35.315Z,99.90
2023-03-16T23:18:26.101Z,99.90
2023-03-16T23:20:57.516Z,99.90
2023-03-16T23:23:31.522Z,99.90
2023-03-16T23:26:22.450Z,95.90
2023-03-16T23:28:52.301Z,96.70
2023-03-16T23:31:22.162Z,98.60
2023-03-16T23:33:53.907Z,98.00
2023-03-16T23:36:24.462Z,98.90
2023-03-16T23:38:53.327Z,98.30
2023-03-16T23:41:24.903Z,97.70
2023-03-16T23:44:02.040Z,97.60
2023-03-16T23:46:43.344Z,98.70
2023-03-16T23:49:26.647Z,96.20
2023-03-16T23:51:59.170Z,95.30
2023-03-16T23:54:41.886Z,94.70
2023-03-16T23:57:43.918Z,94.20
